• Join FlightAware (Why Join?)
  • Login
  • US Flag 
10:09PM EST


 

Airport Tracker/Info


-or-


 

Live Flight TrackerFlight Track Log ✈ SWA440 ✈ 17-Apr-2013 ✈ KMDW - KCLE

Flight Track Log - Related Links

Times and Time Zones

All times are in EDT time to prevent confusion due to time zone crossing. See the SWA440 flight status page for this flight to view local times or setup timezone preferences in your user account.

Time Position Orientation Groundspeed Altitude Reporting Facility
EDT Latitude Longitude Course Direction KTS MPH feet Rate Location/Type
09:17AM 41.8000 -87.7667 90° East 150 173 2,000  Level Chicago TRACON
09:18AM 41.8167 -87.7167 66° East 215 247 4,100 1,260 Climbing Chicago TRACON
09:19AM 41.8333 -87.6167 77° East 259 298 4,700 1,740 Climbing Chicago TRACON
09:20AM 41.8494 -87.5697 65° Northeast 252 290 7,200 3,780 Climbing Chicago Center
09:21AM 41.8600 -87.4603 83° East 302 348 11,100 3,780 Climbing Chicago Center
09:22AM 41.8367 -87.3178 102° East 333 383 15,000 3,180 Climbing Chicago Center
09:23AM 41.7500 -86.9820 90° East  Level FlightAware Approximate
09:23AM 41.8014 -87.1944 111° Southeast 353 406 17,700  Level Chicago Center
09:24AM 41.7628 -87.0572 111° Southeast 390 449 21,000 3,120 Climbing Chicago Center
09:25AM 41.7639 -86.9033 89° East 415 478 24,200 2,760 Climbing Chicago Center
09:26AM 41.7644 -86.7394 90° East 437 503 26,800 2,580 Climbing Chicago Center
09:27AM 41.7661 -86.5525 89° East 457 526 29,600 2,700 Climbing Chicago Center
09:28AM 41.7672 -86.3767 89° East 469 540 32,400 1,620 Climbing Chicago Center
09:29AM 41.7806 -86.2047 84° East 465 535 33,000 240 Climbing Chicago Center
09:30AM 41.8006 -86.0319 81° East 468 539 33,000  Level Chicago Center
09:31AM 41.8192 -85.8581 82° East 470 541 33,000  Level Chicago Center
09:32AM 41.8419 -85.6483 82° East 471 542 33,000  Level Chicago Center
09:33AM 41.8611 -85.4722 82° East 471 542 33,000  Level Chicago Center
09:34AM 41.8753 -85.3553 81° East 464 534 33,000  Level Cleveland Center
09:35AM 41.8928 -85.1808 82° East 464 534 33,000  Level Cleveland Center
09:36AM 41.9081 -85.0061 83° East 464 534 33,000  Level Cleveland Center
09:37AM 41.9250 -84.8314 83° East 464 534 33,000  Level Cleveland Center
09:38AM 41.9439 -84.6567 82° East 464 534 33,000  Level Cleveland Center
09:39AM 41.9583 -84.4844 84° East 464 534 33,000  Level Cleveland Center
09:40AM 41.9725 -84.3036 84° East 464 534 33,000  Level Cleveland Center
09:41AM 41.9858 -84.1481 83° East 464 534 33,000 -540 Level Cleveland Center
09:42AM 41.9994 -83.9697 84° East 464 534 32,000 -2,040 Descending Cleveland Center
09:43AM 42.0150 -83.7972 83° East 464 534 29,000 -2,820 Descending Cleveland Center
09:44AM 42.0303 -83.6192 83° East 469 540 26,400 -2,520 Descending Cleveland Center
09:45AM 42.0414 -83.4322 85° East 469 540 24,000 -1,680 Descending Cleveland Center
09:46AM 42.0269 -83.2500 96° East 472 543 23,100 -960 Descending Cleveland Center
09:47AM 42.0081 -83.0675 98° East 484 557 22,100 -1,200 Descending Cleveland Center
09:48AM 41.9908 -82.8936 98° East 479 551 20,800 -2,040 Descending Cleveland Center
09:49AM 41.9753 -82.7281 97° East 466 536 18,100 -2,700 Descending Cleveland Center
09:50AM 41.9592 -82.5825 98° East 430 495 15,600 -2,040 Descending Cleveland Center
09:50AM 41.9378 -82.4925 108° East 436 502 15,000 -1,380 Descending Cleveland Center
09:51AM 41.9161 -82.4192 112° Southeast 433 498 14,200 -2,340 Descending Cleveland Center
09:51AM 41.8919 -82.3544 117° Southeast 426 490 12,900 -2,820 Descending Cleveland Center
09:52AM 41.8725 -82.2786 109° East 422 486 11,400 -2,700 Descending Cleveland Center
09:52AM 41.8503 -82.2167 116° Southeast 388 447 10,200 -1,440 Descending Cleveland Center
09:53AM 41.8242 -82.1492 117° Southeast 399 459 10,000 -240 Descending Cleveland Center
09:53AM 41.7808 -82.1092 145° Southeast 391 450 10,000  Level Cleveland Center
09:54AM 41.7419 -82.0692 142° Southeast 390 449 10,000  Level Cleveland Center
09:54AM 41.6986 -82.0292 145° Southeast 388 447 10,000  Level Cleveland Center
09:55AM 41.6636 -81.9922 142° Southeast 371 427 10,000 -840 Level Cleveland Center
09:55AM 41.6286 -81.9611 146° Southeast 298 343 9,200 -1,560 Descending Cleveland Center
09:56AM 41.5936 -81.9269 144° Southeast 325 374 8,500 -1,500 Descending Cleveland Center
09:56AM 41.5561 -81.9094 161° South 294 338 7,700 -1,500 Descending Cleveland Center
09:57AM 41.5167 -81.9142 185° South 282 325 7,000 -900 Descending Cleveland Center
09:57AM 41.4789 -81.9300 197° South 269 310 6,800 -1,140 Descending Cleveland Center
09:58AM 41.4533 -81.9600 221° Southwest 258 297 5,900 -1,500 Descending Cleveland Center
09:58AM 41.4217 -81.9925 218° Southwest 261 300 5,300 -720 Descending Cleveland Center
09:59AM 41.3986 -82.0197 222° Southwest 258 297 5,200 -1,200 Descending Cleveland Center
09:59AM 41.3672 -82.0300 194° South 219 252 4,100 -1,680 Descending Cleveland Center
10:00AM 41.3344 -81.9769 129° Southeast 160 184 2,800 -1,020 Descending Cleveland Center
10:01AM 41.3558 -81.9358 55° Northeast 136 157 2,200 -720 Descending Cleveland Center
10:02AM 41.3792 -81.9003 49° Northeast 122 140 1,500 -720 Descending Cleveland Center
10:04AM 41.4000 -81.8500 75° East  Level FlightAware Approximate
10:11AM 41.4094 -81.8547 75° East  Level Estimated
10:12AM 41.4094 -81.8547 75° East  Level Estimated